createdAt,value
2023-11-21T00:00:38.247Z,15.18
2023-11-21T00:03:05.540Z,15.65
2023-11-21T00:05:32.692Z,17.02
2023-11-21T00:07:59.823Z,16.67
2023-11-21T00:10:27.870Z,15.70
2023-11-21T00:12:56.186Z,14.27
2023-11-21T00:15:23.310Z,14.40
2023-11-21T00:17:50.752Z,15.60
2023-11-21T00:20:17.946Z,16.13
2023-11-21T00:22:45.085Z,14.95
2023-11-21T00:25:16.233Z,15.82
2023-11-21T00:27:43.387Z,15.30
2023-11-21T00:30:11.351Z,15.00
2023-11-21T00:32:39.101Z,16.42
2023-11-21T00:35:07.100Z,15.48
2023-11-21T00:37:34.317Z,15.25
2023-11-21T00:40:05.946Z,16.33
2023-11-21T00:42:35.744Z,15.10
2023-11-21T00:45:03.275Z,16.48
2023-11-21T00:47:30.620Z,15.27
2023-11-21T00:49:58.028Z,17.20
2023-11-21T00:52:25.117Z,16.42
2023-11-21T00:54:52.825Z,15.90
2023-11-21T00:57:19.971Z,16.17
2023-11-21T00:59:46.916Z,17.02
2023-11-21T01:02:14.014Z,17.08
2023-11-21T01:04:41.251Z,16.80
2023-11-21T01:07:08.341Z,16.10
2023-11-21T01:09:35.403Z,18.10
2023-11-21T01:12:02.452Z,17.02
2023-11-21T01:14:29.567Z,17.45
2023-11-21T01:16:58.835Z,18.05
2023-11-21T01:19:26.125Z,17.92
2023-11-21T01:21:54.082Z,17.88
2023-11-21T01:24:21.053Z,18.30
2023-11-21T01:26:48.042Z,18.30
2023-11-21T01:29:16.174Z,17.30
2023-11-21T01:31:43.443Z,19.40
2023-11-21T01:34:10.652Z,19.10
2023-11-21T01:36:37.724Z,18.00
2023-11-21T01:39:09.459Z,20.05
2023-11-21T01:41:36.617Z,19.15
2023-11-21T01:44:04.049Z,21.05
2023-11-21T01:46:31.617Z,20.23
2023-11-21T01:48:58.668Z,19.85
2023-11-21T01:51:27.721Z,21.10
2023-11-21T01:53:55.266Z,22.75
2023-11-21T01:56:22.595Z,22.33
2023-11-21T01:58:49.745Z,21.73
2023-11-21T02:01:16.963Z,22.35
2023-11-21T02:03:44.187Z,21.65
2023-11-21T02:06:11.273Z,22.73
2023-11-21T02:08:39.063Z,24.00
2023-11-21T02:11:07.401Z,24.23
2023-11-21T02:13:34.558Z,24.65
2023-11-21T02:16:02.513Z,24.40
2023-11-21T02:18:30.045Z,23.63
2023-11-21T02:20:57.994Z,25.98
2023-11-21T02:23:29.802Z,26.33
2023-11-21T02:25:57.426Z,25.88
2023-11-21T02:28:27.315Z,25.50
2023-11-21T02:30:59.211Z,27.83
2023-11-21T02:33:26.614Z,26.10
2023-11-21T02:35:56.014Z,25.35
2023-11-21T02:38:23.335Z,28.05
2023-11-21T02:40:50.876Z,24.88
2023-11-21T02:43:18.131Z,30.42
2023-11-21T02:45:46.196Z,29.13
2023-11-21T02:48:13.831Z,39.40
2023-11-21T02:50:41.025Z,27.92
2023-11-21T02:53:08.366Z,29.25
2023-11-21T02:55:36.014Z,33.95
2023-11-21T02:58:04.993Z,25.08
2023-11-21T03:00:32.056Z,33.22
2023-11-21T03:02:59.504Z,30.52
2023-11-21T03:05:27.163Z,46.10
2023-11-21T03:07:54.218Z,29.23
2023-11-21T03:10:21.319Z,28.40
2023-11-21T03:12:48.428Z,30.45
2023-11-21T03:15:15.971Z,30.60
2023-11-21T03:17:44.156Z,28.45
2023-11-21T03:20:13.097Z,29.05
2023-11-21T03:22:40.252Z,48.40
2023-11-21T03:25:12.124Z,40.80
2023-11-21T03:27:40.218Z,37.88
2023-11-21T03:30:10.559Z,31.40
2023-11-21T03:32:38.223Z,26.25
2023-11-21T03:35:07.194Z,28.58
2023-11-21T03:37:34.583Z,25.95
2023-11-21T03:40:02.134Z,28.17
2023-11-21T03:42:29.199Z,27.20
2023-11-21T03:44:56.315Z,26.08
2023-11-21T03:47:23.636Z,27.27
2023-11-21T03:49:51.012Z,29.20
2023-11-21T03:52:18.581Z,23.67
2023-11-21T03:54:46.132Z,23.55
2023-11-21T03:57:13.401Z,28.73
2023-11-21T03:59:44.854Z,27.48
2023-11-21T04:02:11.942Z,28.00
2023-11-21T04:04:39.653Z,28.02
2023-11-21T04:07:06.794Z,26.63
2023-11-21T04:09:33.974Z,28.08
2023-11-21T04:12:01.114Z,26.23
2023-11-21T04:14:28.335Z,26.30
2023-11-21T04:16:56.237Z,34.22
2023-11-21T04:19:23.460Z,26.42
2023-11-21T04:21:50.991Z,28.05
2023-11-21T04:24:18.389Z,29.55
2023-11-21T04:26:46.293Z,26.35
2023-11-21T04:29:13.479Z,24.40
2023-11-21T04:31:40.625Z,23.23
2023-11-21T04:34:07.769Z,24.40
2023-11-21T04:36:36.057Z,31.75
2023-11-21T04:39:03.464Z,27.42
2023-11-21T04:41:32.590Z,29.30
2023-11-21T04:44:01.934Z,27.85
2023-11-21T04:46:29.374Z,36.70
2023-11-21T04:48:56.525Z,29.80
2023-11-21T04:51:23.600Z,28.40
2023-11-21T04:53:50.646Z,29.80
2023-11-21T04:56:17.672Z,28.42
2023-11-21T04:58:45.360Z,27.77
2023-11-21T05:01:13.084Z,26.35
2023-11-21T05:03:40.341Z,31.58
2023-11-21T05:06:10.506Z,32.15
2023-11-21T05:08:38.358Z,27.58
2023-11-21T05:11:05.667Z,28.20
2023-11-21T05:13:34.692Z,25.90
2023-11-21T05:16:05.191Z,29.33
2023-11-21T05:18:32.220Z,24.38
2023-11-21T05:20:59.446Z,28.40
2023-11-21T05:23:26.467Z,24.92
2023-11-21T05:25:53.658Z,24.73
2023-11-21T05:28:20.960Z,27.70
2023-11-21T05:32:26.358Z,25.88
2023-11-21T05:34:54.079Z,24.25
2023-11-21T05:37:21.218Z,25.27
2023-11-21T05:39:48.278Z,22.20
2023-11-21T05:42:15.285Z,25.13
2023-11-21T05:44:44.559Z,23.77
2023-11-21T05:47:11.724Z,21.75
2023-11-21T05:49:38.762Z,23.73
2023-11-21T05:52:06.574Z,26.55
2023-11-21T05:54:33.938Z,27.23
2023-11-21T05:57:01.040Z,25.25
2023-11-21T05:59:28.109Z,23.90
2023-11-21T06:01:55.211Z,24.23
2023-11-21T06:06:53.916Z,23.63
2023-11-21T06:09:21.905Z,22.50
2023-11-21T06:11:48.947Z,23.30
2023-11-21T06:14:19.193Z,23.38
2023-11-21T06:16:46.539Z,23.13
2023-11-21T06:19:13.709Z,22.20
2023-11-21T06:21:40.798Z,21.75
2023-11-21T06:24:08.391Z,22.73
2023-11-21T06:26:35.663Z,23.27
2023-11-21T06:29:04.227Z,24.05
2023-11-21T06:31:31.662Z,21.80
2023-11-21T06:34:00.841Z,22.20
2023-11-21T06:36:28.054Z,22.73
2023-11-21T06:38:55.072Z,23.00
2023-11-21T06:41:24.733Z,20.55
2023-11-21T06:43:51.902Z,21.80
2023-11-21T06:46:20.952Z,22.85
2023-11-21T06:48:49.784Z,23.20
2023-11-21T06:51:16.943Z,23.40
2023-11-21T06:53:44.639Z,23.25
2023-11-21T06:56:21.251Z,24.10
2023-11-21T06:58:48.507Z,22.58
2023-11-21T07:01:16.185Z,24.52
2023-11-21T07:03:45.550Z,25.75
2023-11-21T07:06:12.771Z,22.55
2023-11-21T07:08:39.776Z,20.73
2023-11-21T07:11:08.441Z,20.90
2023-11-21T07:13:35.433Z,20.83
2023-11-21T07:16:02.609Z,19.48
2023-11-21T07:18:29.658Z,20.52
2023-11-21T07:20:59.954Z,22.10
2023-11-21T07:23:28.786Z,20.80
2023-11-21T07:25:55.975Z,21.17
2023-11-21T07:28:24.581Z,20.63
2023-11-21T07:30:51.643Z,20.63
2023-11-21T07:33:18.810Z,22.42
2023-11-21T07:35:45.841Z,20.80
2023-11-21T07:38:12.835Z,21.30
2023-11-21T07:40:44.641Z,22.40
2023-11-21T07:43:11.672Z,22.20
2023-11-21T07:45:38.783Z,20.20
2023-11-21T07:48:08.304Z,21.52
2023-11-21T07:50:35.255Z,21.63
2023-11-21T07:53:02.356Z,21.20
2023-11-21T07:55:33.243Z,20.90
2023-11-21T07:58:00.961Z,21.58
2023-11-21T08:00:31.320Z,20.20
2023-11-21T08:02:59.406Z,23.05
2023-11-21T08:05:32.818Z,86.90
2023-11-21T08:08:07.280Z,28.35
2023-11-21T08:10:34.843Z,24.90
2023-11-21T08:13:02.955Z,24.77
2023-11-21T08:15:30.123Z,41.95
2023-11-21T08:18:00.103Z,33.75
2023-11-21T08:20:27.332Z,24.17
2023-11-21T08:22:54.430Z,29.30
2023-11-21T08:25:21.707Z,27.02
2023-11-21T08:27:49.014Z,27.15
2023-11-21T08:30:18.027Z,22.33
2023-11-21T08:32:45.141Z,37.60
2023-11-21T08:35:13.484Z,51.53
2023-11-21T08:37:40.869Z,23.90
2023-11-21T08:40:13.545Z,23.02
2023-11-21T08:42:40.613Z,24.95
2023-11-21T08:45:10.042Z,23.50
2023-11-21T08:47:37.726Z,22.23
2023-11-21T08:50:07.295Z,23.63
2023-11-21T08:52:35.620Z,20.83
2023-11-21T08:55:08.777Z,22.42
2023-11-21T08:57:47.598Z,21.27
2023-11-21T09:00:17.889Z,19.52
2023-11-21T09:02:46.139Z,22.10
2023-11-21T09:05:15.262Z,22.75
2023-11-21T09:07:43.677Z,25.52
2023-11-21T09:10:11.588Z,19.77
2023-11-21T09:12:39.473Z,19.10
2023-11-21T09:15:08.877Z,18.02
2023-11-21T09:17:36.471Z,18.10
2023-11-21T09:20:06.569Z,18.75
2023-11-21T09:22:34.538Z,16.55
2023-11-21T09:25:01.750Z,25.13
2023-11-21T09:27:28.758Z,35.92
2023-11-21T09:29:56.390Z,19.80
2023-11-21T09:32:23.491Z,19.08
2023-11-21T09:34:51.556Z,17.10
2023-11-21T09:37:20.162Z,17.52
2023-11-21T09:39:49.084Z,16.30
2023-11-21T09:42:31.457Z,25.48
2023-11-21T09:45:19.051Z,16.17
2023-11-21T09:47:47.805Z,19.80
2023-11-21T09:50:20.072Z,17.50
2023-11-21T09:53:11.946Z,15.70
2023-11-21T09:55:43.205Z,18.05
2023-11-21T09:58:13.222Z,19.40
2023-11-21T10:00:48.774Z,19.65
2023-11-21T10:03:17.326Z,18.38
2023-11-21T10:05:47.383Z,17.05
2023-11-21T10:08:15.257Z,16.33
2023-11-21T10:10:49.755Z,15.98
2023-11-21T10:13:19.502Z,18.10
2023-11-21T10:15:52.571Z,17.80
2023-11-21T10:18:20.626Z,17.58
2023-11-21T10:20:53.440Z,16.58
2023-11-21T10:23:24.144Z,18.38
2023-11-21T10:25:54.197Z,18.27
2023-11-21T10:28:22.702Z,17.75
2023-11-21T10:30:50.078Z,17.83
2023-11-21T10:33:17.850Z,18.25
2023-11-21T10:35:54.758Z,18.95
2023-11-21T10:38:24.432Z,19.60
2023-11-21T10:40:52.365Z,18.90
2023-11-21T10:43:19.856Z,18.58
2023-11-21T10:45:47.415Z,20.13
2023-11-21T10:48:19.199Z,19.67
2023-11-21T10:50:48.566Z,19.73
2023-11-21T10:53:16.390Z,19.33
2023-11-21T10:55:45.889Z,20.92
2023-11-21T10:58:15.829Z,21.65
2023-11-21T11:00:46.430Z,20.83
2023-11-21T11:03:16.849Z,20.00
2023-11-21T11:05:53.349Z,20.23
2023-11-21T11:08:28.296Z,19.90
2023-11-21T11:10:57.122Z,21.23
2023-11-21T11:13:25.373Z,21.17
2023-11-21T11:16:03.410Z,22.13
2023-11-21T11:18:31.134Z,21.50
2023-11-21T11:21:45.062Z,21.05
2023-11-21T11:24:51.729Z,20.10
2023-11-21T11:27:49.734Z,21.35
2023-11-21T11:31:18.304Z,19.88
2023-11-21T11:34:05.284Z,19.40
2023-11-21T11:36:50.274Z,21.00
2023-11-21T11:39:36.567Z,18.38
2023-11-21T11:42:09.196Z,19.08
2023-11-21T11:44:48.771Z,20.15
2023-11-21T11:47:34.083Z,19.50
2023-11-21T11:50:19.114Z,20.80
2023-11-21T11:55:19.496Z,19.65
2023-11-21T12:00:27.562Z,21.08
2023-11-21T12:03:00.557Z,21.50
2023-11-21T12:05:34.117Z,20.40
2023-11-21T12:08:04.952Z,22.83
2023-11-21T12:10:38.209Z,22.73
2023-11-21T12:13:11.339Z,24.38
2023-11-21T12:15:40.667Z,20.20
2023-11-21T12:18:08.865Z,20.17
2023-11-21T12:20:40.360Z,19.90
2023-11-21T12:23:10.748Z,20.60
2023-11-21T12:25:38.540Z,22.35
2023-11-21T12:28:07.123Z,21.98
2023-11-21T12:30:39.103Z,22.45
2023-11-21T12:33:10.117Z,21.90
2023-11-21T12:35:37.779Z,21.63
2023-11-21T12:38:06.484Z,23.23
2023-11-21T12:40:33.906Z,20.73
2023-11-21T12:43:06.128Z,21.30
2023-11-21T12:45:33.871Z,20.20
2023-11-21T12:48:08.463Z,20.33
2023-11-21T12:50:37.687Z,19.52
2023-11-21T12:53:13.918Z,18.45
2023-11-21T12:55:43.373Z,18.15
2023-11-21T12:58:12.788Z,18.17
2023-11-21T13:00:44.661Z,15.88
2023-11-21T13:03:18.499Z,17.63
2023-11-21T13:05:53.183Z,17.10
2023-11-21T13:08:24.061Z,18.65
2023-11-21T13:10:58.677Z,19.92
2023-11-21T13:13:30.196Z,14.68
2023-11-21T13:16:07.223Z,13.15
2023-11-21T13:18:34.724Z,13.15
2023-11-21T13:21:16.761Z,12.65
2023-11-21T13:23:47.096Z,12.55
2023-11-21T13:26:15.853Z,13.63
2023-11-21T13:28:47.697Z,13.00
2023-11-21T13:31:28.223Z,12.18
2023-11-21T13:34:05.502Z,12.75
2023-11-21T13:36:36.251Z,12.35
2023-11-21T13:39:09.847Z,14.02
2023-11-21T13:41:39.260Z,13.93
2023-11-21T13:44:28.337Z,15.25
2023-11-21T13:46:58.665Z,13.60
2023-11-21T13:49:27.790Z,12.98
2023-11-21T13:51:56.354Z,12.48
2023-11-21T13:54:26.000Z,11.80
2023-11-21T13:56:53.091Z,11.40
2023-11-21T13:59:26.478Z,12.80
2023-11-21T14:01:57.989Z,13.47
2023-11-21T14:04:33.968Z,14.98
2023-11-21T14:07:12.112Z,14.45
2023-11-21T14:09:45.286Z,14.57
2023-11-21T14:12:14.458Z,14.25
2023-11-21T14:14:41.664Z,14.30
2023-11-21T14:17:08.838Z,14.25
2023-11-21T14:19:40.071Z,14.43
2023-11-21T14:22:11.014Z,15.27
2023-11-21T14:24:38.534Z,16.02
2023-11-21T14:27:06.650Z,15.00
2023-11-21T14:29:39.746Z,16.02
2023-11-21T14:32:09.024Z,15.63
2023-11-21T14:34:36.452Z,15.45
2023-11-21T14:37:06.811Z,15.43
2023-11-21T14:39:38.977Z,13.18
2023-11-21T14:42:09.022Z,14.45
2023-11-21T14:44:39.864Z,14.48
2023-11-21T14:47:14.094Z,13.45
2023-11-21T14:49:54.536Z,13.75
2023-11-21T14:52:35.212Z,14.35
2023-11-21T14:55:25.928Z,14.32
2023-11-21T14:57:53.140Z,14.57
2023-11-21T15:00:34.077Z,13.98
2023-11-21T15:03:03.079Z,13.00
2023-11-21T15:05:30.843Z,14.18
2023-11-21T15:08:12.199Z,13.88
2023-11-21T15:10:47.065Z,14.48
2023-11-21T15:13:15.987Z,13.80
2023-11-21T15:15:43.839Z,13.85
2023-11-21T15:18:13.541Z,12.90
2023-11-21T15:20:42.485Z,12.00
2023-11-21T15:23:10.315Z,12.20
2023-11-21T15:25:37.518Z,10.48
2023-11-21T15:28:05.868Z,11.77
2023-11-21T15:30:34.252Z,10.88
2023-11-21T15:33:04.594Z,11.88
2023-11-21T15:35:33.714Z,10.23
2023-11-21T15:38:01.109Z,9.60
2023-11-21T15:40:28.455Z,9.80
2023-11-21T15:42:55.564Z,9.20
2023-11-21T15:45:25.633Z,10.95
2023-11-21T15:47:54.769Z,10.13
2023-11-21T15:50:22.262Z,9.63
2023-11-21T15:52:57.170Z,10.30
2023-11-21T15:55:26.962Z,10.35
2023-11-21T15:57:54.192Z,10.35
2023-11-21T16:00:23.819Z,9.95
2023-11-21T16:02:51.574Z,10.50
2023-11-21T16:05:19.219Z,10.90
2023-11-21T16:07:48.231Z,10.70
2023-11-21T16:10:18.581Z,10.20
2023-11-21T16:12:46.103Z,11.02
2023-11-21T16:15:13.319Z,12.85
2023-11-21T16:17:42.907Z,13.95
2023-11-21T16:20:13.650Z,14.43
2023-11-21T16:22:41.965Z,15.55
2023-11-21T16:25:13.582Z,14.07
2023-11-21T16:27:41.818Z,15.43
2023-11-21T16:30:13.098Z,15.23
2023-11-21T16:32:42.656Z,15.52
2023-11-21T16:35:12.755Z,13.80
2023-11-21T16:37:40.653Z,12.57
2023-11-21T16:40:10.207Z,12.50
2023-11-21T16:42:39.607Z,11.38
2023-11-21T16:45:09.068Z,11.02
2023-11-21T16:47:36.529Z,10.35
2023-11-21T16:50:04.646Z,9.60
2023-11-21T16:52:32.554Z,9.68
2023-11-21T16:55:03.760Z,9.40
2023-11-21T16:57:34.382Z,8.77
2023-11-21T17:00:05.173Z,8.95
2023-11-21T17:02:32.263Z,9.00
2023-11-21T17:04:59.708Z,8.75
2023-11-21T17:07:27.442Z,8.77
2023-11-21T17:09:54.442Z,9.68
2023-11-21T17:12:21.449Z,9.98
2023-11-21T17:14:50.322Z,10.52
2023-11-21T17:17:18.012Z,9.77
2023-11-21T17:19:45.591Z,9.80
2023-11-21T17:22:13.151Z,9.48
2023-11-21T17:24:40.233Z,9.77
2023-11-21T17:27:07.373Z,10.60
2023-11-21T17:29:34.482Z,9.35
2023-11-21T17:32:01.595Z,10.02
2023-11-21T17:34:28.611Z,10.35
2023-11-21T17:36:56.815Z,8.88
2023-11-21T17:39:24.554Z,9.77
2023-11-21T17:41:51.657Z,9.85
2023-11-21T17:44:18.848Z,9.65
2023-11-21T17:46:46.005Z,9.95
2023-11-21T17:49:13.416Z,10.13
2023-11-21T17:51:42.364Z,10.40
2023-11-21T17:54:09.912Z,10.88
2023-11-21T17:56:37.427Z,10.88
2023-11-21T17:59:05.519Z,10.88
2023-11-21T18:01:40.634Z,10.80
2023-11-21T18:04:08.297Z,11.70
2023-11-21T18:06:35.485Z,11.75
2023-11-21T18:09:04.529Z,11.90
2023-11-21T18:11:31.872Z,11.70
2023-11-21T18:13:59.077Z,12.02
2023-11-21T18:16:26.357Z,11.73
2023-11-21T18:18:53.426Z,13.70
2023-11-21T18:21:20.677Z,13.05
2023-11-21T18:23:47.775Z,13.65
2023-11-21T18:26:19.014Z,13.15
2023-11-21T18:28:46.846Z,13.65
2023-11-21T18:31:16.021Z,13.02
2023-11-21T18:33:43.533Z,12.77
2023-11-21T18:36:10.772Z,13.13
2023-11-21T18:38:39.871Z,12.43
2023-11-21T18:41:07.136Z,13.30
2023-11-21T18:43:35.711Z,13.63
2023-11-21T18:46:04.810Z,13.27
2023-11-21T18:48:31.901Z,13.25
2023-11-21T18:50:58.985Z,13.18
2023-11-21T18:53:29.375Z,13.88
2023-11-21T18:55:57.959Z,13.57
2023-11-21T18:58:25.289Z,13.32
2023-11-21T19:00:53.140Z,13.07
2023-11-21T19:03:20.704Z,13.65
2023-11-21T19:05:47.807Z,13.55
2023-11-21T19:08:14.993Z,13.07
2023-11-21T19:10:42.839Z,12.10
2023-11-21T19:13:10.027Z,13.23
2023-11-21T19:15:37.337Z,12.18
2023-11-21T19:18:04.759Z,13.20
2023-11-21T19:20:33.348Z,12.82
2023-11-21T19:23:00.479Z,13.45
2023-11-21T19:25:27.439Z,14.07
2023-11-21T19:27:54.418Z,12.88
2023-11-21T19:30:21.505Z,13.77
2023-11-21T19:32:49.970Z,14.02
2023-11-21T19:35:21.075Z,13.32
2023-11-21T19:37:48.646Z,14.80
2023-11-21T19:40:23.666Z,13.20
2023-11-21T19:42:51.184Z,13.60
2023-11-21T19:45:20.052Z,13.35
2023-11-21T19:47:47.113Z,14.43
2023-11-21T19:50:14.408Z,14.27
2023-11-21T19:52:43.532Z,14.63
2023-11-21T19:55:11.322Z,14.25
2023-11-21T19:57:40.037Z,15.65
2023-11-21T20:00:12.516Z,13.68
2023-11-21T20:02:43.481Z,14.63
2023-11-21T20:05:16.703Z,14.75
2023-11-21T20:07:44.222Z,14.13
2023-11-21T20:10:11.651Z,14.30
2023-11-21T20:12:38.762Z,14.95
2023-11-21T20:15:07.079Z,14.50
2023-11-21T20:17:34.250Z,14.25
2023-11-21T20:20:01.423Z,14.52
2023-11-21T20:22:28.498Z,13.15
2023-11-21T20:24:55.508Z,13.65
2023-11-21T20:27:22.534Z,12.70
2023-11-21T20:29:49.735Z,13.98
2023-11-21T20:32:17.980Z,12.95
2023-11-21T20:34:51.768Z,12.52
2023-11-21T20:37:18.847Z,12.25
2023-11-21T20:39:47.282Z,12.80
2023-11-21T20:42:16.464Z,13.27
2023-11-21T20:44:43.456Z,13.25
2023-11-21T20:47:12.632Z,12.55
2023-11-21T20:49:48.004Z,12.32
2023-11-21T20:52:16.262Z,12.68
2023-11-21T20:54:43.262Z,12.32
2023-11-21T20:57:11.057Z,12.13
2023-11-21T20:59:38.197Z,12.65
2023-11-21T21:02:07.436Z,12.65
2023-11-21T21:04:34.606Z,13.15
2023-11-21T21:07:01.620Z,14.25
2023-11-21T21:09:28.661Z,13.27
2023-11-21T21:11:55.738Z,13.05
2023-11-21T21:14:24.937Z,14.15
2023-11-21T21:16:51.970Z,13.68
2023-11-21T21:19:19.550Z,13.65
2023-11-21T21:21:46.943Z,14.95
2023-11-21T21:24:14.064Z,16.35
2023-11-21T21:26:41.409Z,16.90
2023-11-21T21:29:09.868Z,17.55
2023-11-21T21:31:37.358Z,24.67
2023-11-21T21:34:04.834Z,24.90
2023-11-21T21:36:33.188Z,21.73
2023-11-21T21:39:00.791Z,20.13
2023-11-21T21:41:27.836Z,18.90
2023-11-21T21:43:54.929Z,17.38
2023-11-21T21:46:22.263Z,18.27
2023-11-21T21:48:49.360Z,18.55
2023-11-21T21:51:18.212Z,17.27
2023-11-21T21:53:46.741Z,18.17
2023-11-21T21:56:14.845Z,17.38
2023-11-21T21:58:42.216Z,17.92
2023-11-21T22:01:09.756Z,16.58
2023-11-21T22:03:37.434Z,15.98
2023-11-21T22:06:05.404Z,17.88
2023-11-21T22:08:34.453Z,17.92
2023-11-21T22:11:03.363Z,17.27
2023-11-21T22:13:30.384Z,17.33
2023-11-21T22:15:59.395Z,18.80
2023-11-21T22:18:26.436Z,20.65
2023-11-21T22:20:53.441Z,20.63
2023-11-21T22:23:20.667Z,21.45
2023-11-21T22:25:48.301Z,21.77
2023-11-21T22:28:15.293Z,22.45
2023-11-21T22:30:42.421Z,21.63
2023-11-21T22:33:09.554Z,20.35
2023-11-21T22:35:36.647Z,20.10
2023-11-21T22:38:03.894Z,22.55
2023-11-21T22:40:30.997Z,20.02
2023-11-21T22:42:57.929Z,20.55
2023-11-21T22:45:25.268Z,21.50
2023-11-21T22:47:52.723Z,22.35
2023-11-21T22:50:19.864Z,21.33
2023-11-21T22:52:47.363Z,24.35
2023-11-21T22:55:15.771Z,24.17
2023-11-21T22:57:42.863Z,22.35
2023-11-21T23:00:13.699Z,23.02
2023-11-21T23:02:41.549Z,24.70
2023-11-21T23:05:11.072Z,23.38
2023-11-21T23:07:38.452Z,20.65
2023-11-21T23:10:08.602Z,22.50
2023-11-21T23:12:36.691Z,21.25
2023-11-21T23:15:04.187Z,21.63
2023-11-21T23:17:31.335Z,21.60
2023-11-21T23:19:58.480Z,21.85
2023-11-21T23:22:27.666Z,20.88
2023-11-21T23:24:54.610Z,23.10
2023-11-21T23:27:22.660Z,22.52
2023-11-21T23:29:54.579Z,9.98
2023-11-21T23:32:24.573Z,21.70
2023-11-21T23:34:51.866Z,21.73
2023-11-21T23:37:18.925Z,22.25
2023-11-21T23:39:46.010Z,21.27
2023-11-21T23:42:13.070Z,23.17
2023-11-21T23:44:40.283Z,25.45
2023-11-21T23:47:07.293Z,22.20
2023-11-21T23:49:36.316Z,22.58
2023-11-21T23:52:04.084Z,21.83
2023-11-21T23:54:31.206Z,24.35
2023-11-21T23:56:59.189Z,10.65
2023-11-21T23:59:26.381Z,22.42
